createdAt,value
2022-08-27T00:00:48.035Z,1.45
2022-08-27T00:03:15.166Z,1.00
2022-08-27T00:05:42.550Z,1.55
2022-08-27T00:08:12.648Z,1.27
2022-08-27T00:10:40.630Z,1.63
2022-08-27T00:13:07.889Z,1.83
2022-08-27T00:15:34.692Z,1.20
2022-08-27T00:18:01.519Z,1.30
2022-08-27T00:20:28.343Z,1.67
2022-08-27T00:22:55.119Z,1.83
2022-08-27T00:25:25.401Z,1.65
2022-08-27T00:27:52.491Z,1.35
2022-08-27T00:30:21.906Z,1.25
2022-08-27T00:32:49.010Z,1.83
2022-08-27T00:35:16.605Z,1.50
2022-08-27T00:37:44.009Z,1.30
2022-08-27T00:40:15.279Z,1.23
2022-08-27T00:42:42.735Z,1.33
2022-08-27T00:45:10.373Z,1.20
2022-08-27T00:47:43.855Z,1.23
2022-08-27T00:50:23.720Z,1.65
2022-08-27T00:52:57.490Z,1.38
2022-08-27T00:55:35.888Z,1.85
2022-08-27T00:58:05.373Z,1.55
2022-08-27T01:00:32.703Z,2.00
2022-08-27T01:02:59.530Z,1.33
2022-08-27T01:05:27.469Z,1.25
2022-08-27T01:08:01.951Z,1.77
2022-08-27T01:10:29.918Z,1.70
2022-08-27T01:12:57.554Z,1.35
2022-08-27T01:15:27.876Z,1.80
2022-08-27T01:17:55.726Z,2.15
2022-08-27T01:20:29.602Z,1.95
2022-08-27T01:22:56.417Z,1.30
2022-08-27T01:25:25.049Z,1.38
2022-08-27T01:27:53.731Z,1.35
2022-08-27T01:30:21.827Z,2.53
2022-08-27T01:32:49.012Z,1.30
2022-08-27T01:35:17.318Z,1.50
2022-08-27T01:37:47.747Z,1.13
2022-08-27T01:40:16.863Z,1.27
2022-08-27T01:42:47.359Z,1.73
2022-08-27T01:45:21.671Z,1.83
2022-08-27T01:47:48.451Z,1.60
2022-08-27T01:50:20.407Z,1.20
2022-08-27T01:52:47.394Z,1.65
2022-08-27T01:55:19.743Z,1.58
2022-08-27T01:57:46.919Z,1.23
2022-08-27T02:00:18.648Z,1.48
2022-08-27T02:02:46.751Z,1.80
2022-08-27T02:05:13.553Z,2.10
2022-08-27T02:07:42.034Z,1.63
2022-08-27T02:10:14.334Z,1.88
2022-08-27T02:12:43.678Z,2.10
2022-08-27T02:15:13.971Z,2.33
2022-08-27T02:17:41.684Z,1.52
2022-08-27T02:20:10.807Z,2.53
2022-08-27T02:22:41.459Z,1.48
2022-08-27T02:25:10.167Z,1.38
2022-08-27T02:27:37.161Z,1.90
2022-08-27T02:30:04.939Z,1.70
2022-08-27T02:32:34.972Z,2.08
2022-08-27T02:35:03.998Z,1.80
2022-08-27T02:37:31.613Z,1.75
2022-08-27T02:39:58.612Z,1.67
2022-08-27T02:42:25.350Z,2.03
2022-08-27T02:44:52.220Z,1.52
2022-08-27T02:47:18.949Z,1.70
2022-08-27T02:49:46.072Z,1.83
2022-08-27T02:52:13.355Z,2.67
2022-08-27T02:54:40.714Z,2.33
2022-08-27T02:57:07.421Z,1.45
2022-08-27T02:59:34.230Z,1.30
2022-08-27T03:02:01.342Z,2.55
2022-08-27T03:04:29.266Z,1.95
2022-08-27T03:06:56.403Z,2.47
2022-08-27T03:09:23.158Z,1.75
2022-08-27T03:11:49.981Z,1.20
2022-08-27T03:14:16.730Z,2.90
2022-08-27T03:16:43.453Z,1.70
2022-08-27T03:19:10.769Z,1.55
2022-08-27T03:21:37.726Z,1.40
2022-08-27T03:24:11.735Z,1.35
2022-08-27T03:26:41.711Z,1.75
2022-08-27T03:29:19.824Z,1.50
2022-08-27T03:31:46.637Z,2.50
2022-08-27T03:34:13.611Z,1.80
2022-08-27T03:36:40.362Z,1.77
2022-08-27T03:39:07.119Z,1.38
2022-08-27T03:41:43.868Z,2.38
2022-08-27T03:44:23.924Z,1.00
2022-08-27T03:46:52.118Z,1.67
2022-08-27T03:49:21.254Z,2.50
2022-08-27T03:51:49.630Z,2.38
2022-08-27T03:54:16.961Z,1.20
2022-08-27T03:56:43.845Z,1.15
2022-08-27T03:59:10.702Z,2.78
2022-08-27T04:01:37.744Z,1.60
2022-08-27T04:04:04.709Z,1.77
2022-08-27T04:06:31.490Z,1.13
2022-08-27T04:08:58.250Z,1.52
2022-08-27T04:11:24.955Z,1.48
2022-08-27T04:13:52.021Z,1.52
2022-08-27T04:16:21.945Z,2.10
2022-08-27T04:18:48.875Z,2.05
2022-08-27T04:21:15.800Z,1.83
2022-08-27T04:23:43.185Z,1.83
2022-08-27T04:26:11.322Z,1.90
2022-08-27T04:28:39.128Z,1.80
2022-08-27T04:31:06.740Z,2.65
2022-08-27T04:33:43.886Z,2.47
2022-08-27T04:36:17.876Z,1.33
2022-08-27T04:38:47.862Z,3.22
2022-08-27T04:41:21.182Z,2.33
2022-08-27T04:43:57.298Z,1.45
2022-08-27T04:46:29.531Z,1.92
2022-08-27T04:49:03.115Z,2.42
2022-08-27T04:51:34.207Z,2.33
2022-08-27T04:54:03.212Z,1.23
2022-08-27T04:56:31.274Z,1.85
2022-08-27T04:59:01.316Z,2.08
2022-08-27T05:01:30.394Z,1.52
2022-08-27T05:04:03.169Z,2.17
2022-08-27T05:06:30.001Z,1.80
2022-08-27T05:08:57.540Z,1.42
2022-08-27T05:11:27.098Z,1.20
2022-08-27T05:13:53.844Z,2.72
2022-08-27T05:16:22.973Z,2.58
2022-08-27T05:18:52.122Z,1.15
2022-08-27T05:21:29.116Z,2.47
2022-08-27T05:23:57.511Z,1.70
2022-08-27T05:26:24.825Z,2.42
2022-08-27T05:28:51.589Z,2.97
2022-08-27T05:31:20.269Z,1.40
2022-08-27T05:33:48.294Z,1.58
2022-08-27T05:36:22.003Z,2.60
2022-08-27T05:38:50.382Z,2.15
2022-08-27T05:41:21.661Z,2.72
2022-08-27T05:43:50.383Z,1.15
2022-08-27T05:46:20.270Z,1.20
2022-08-27T05:48:47.323Z,1.92
2022-08-27T05:51:26.732Z,1.75
2022-08-27T05:53:59.761Z,1.13
2022-08-27T05:56:30.688Z,2.97
2022-08-27T05:59:15.827Z,1.33
2022-08-27T06:01:46.357Z,1.75
2022-08-27T06:04:17.509Z,1.08
2022-08-27T06:06:45.766Z,1.10
2022-08-27T06:09:16.143Z,3.50
2022-08-27T06:11:43.384Z,1.40
2022-08-27T06:14:10.951Z,1.92
2022-08-27T06:16:38.769Z,2.22
2022-08-27T06:19:07.594Z,1.38
2022-08-27T06:21:34.914Z,2.60
2022-08-27T06:24:02.366Z,2.10
2022-08-27T06:26:29.387Z,1.65
2022-08-27T06:28:58.332Z,2.03
2022-08-27T06:31:27.156Z,1.65
2022-08-27T06:34:03.099Z,4.00
2022-08-27T06:36:38.246Z,3.65
2022-08-27T06:39:13.154Z,1.75
2022-08-27T06:44:11.299Z,1.65
2022-08-27T06:46:39.985Z,2.33
2022-08-27T06:49:07.181Z,3.17
2022-08-27T06:51:36.000Z,2.58
2022-08-27T06:54:06.310Z,1.77
2022-08-27T06:56:33.630Z,2.30
2022-08-27T06:59:03.932Z,1.88
2022-08-27T07:01:36.848Z,2.30
2022-08-27T07:04:06.284Z,2.05
2022-08-27T07:06:34.275Z,2.03
2022-08-27T07:09:01.199Z,2.22
2022-08-27T07:11:29.478Z,2.03
2022-08-27T07:13:56.326Z,2.97
2022-08-27T07:16:25.360Z,1.85
2022-08-27T07:18:54.634Z,3.08
2022-08-27T07:21:22.243Z,1.75
2022-08-27T07:23:52.687Z,2.20
2022-08-27T07:26:20.623Z,2.75
2022-08-27T07:28:47.799Z,3.05
2022-08-27T07:31:19.380Z,5.18
2022-08-27T07:33:52.935Z,1.80
2022-08-27T07:36:21.188Z,2.45
2022-08-27T07:39:00.884Z,2.22
2022-08-27T07:41:32.258Z,2.03
2022-08-27T07:44:19.281Z,3.00
2022-08-27T07:46:48.235Z,2.15
2022-08-27T07:49:20.237Z,3.25
2022-08-27T07:51:47.099Z,2.58
2022-08-27T07:54:14.656Z,3.33
2022-08-27T07:56:42.244Z,1.80
2022-08-27T07:59:11.150Z,2.80
2022-08-27T08:01:38.054Z,2.60
2022-08-27T08:04:05.321Z,2.03
2022-08-27T08:06:32.177Z,2.42
2022-08-27T08:09:01.053Z,2.33
2022-08-27T08:11:29.250Z,1.90
2022-08-27T08:13:56.030Z,1.58
2022-08-27T08:16:30.974Z,2.47
2022-08-27T08:19:00.417Z,1.92
2022-08-27T08:21:27.513Z,1.75
2022-08-27T08:23:55.011Z,2.33
2022-08-27T08:26:21.849Z,3.15
2022-08-27T08:28:48.526Z,1.95
2022-08-27T08:31:15.526Z,3.70
2022-08-27T08:33:42.727Z,2.72
2022-08-27T08:36:14.902Z,1.90
2022-08-27T08:38:42.760Z,3.47
2022-08-27T08:41:28.216Z,2.25
2022-08-27T08:44:04.808Z,3.28
2022-08-27T08:46:45.437Z,2.97
2022-08-27T08:49:33.107Z,3.45
2022-08-27T08:52:31.326Z,4.43
2022-08-27T08:55:35.846Z,3.10
2022-08-27T08:58:18.303Z,1.88
2022-08-27T09:00:49.132Z,2.85
2022-08-27T09:03:16.647Z,2.67
2022-08-27T09:05:53.686Z,2.70
2022-08-27T09:08:41.270Z,2.55
2022-08-27T09:11:27.096Z,2.67
2022-08-27T09:14:01.321Z,4.10
2022-08-27T09:16:28.708Z,2.35
2022-08-27T09:18:55.948Z,2.55
2022-08-27T09:21:32.632Z,3.47
2022-08-27T09:24:08.370Z,1.63
2022-08-27T09:26:41.171Z,2.95
2022-08-27T09:29:17.101Z,1.48
2022-08-27T09:32:08.657Z,2.33
2022-08-27T09:34:42.315Z,2.05
2022-08-27T09:37:39.057Z,2.08
2022-08-27T09:40:23.691Z,3.78
2022-08-27T09:42:53.890Z,2.88
2022-08-27T09:45:30.240Z,2.58
2022-08-27T09:48:14.999Z,2.78
2022-08-27T09:50:57.158Z,2.67
2022-08-27T09:53:51.669Z,2.45
2022-08-27T09:56:34.554Z,3.78
2022-08-27T09:59:08.802Z,3.17
2022-08-27T10:01:54.146Z,1.95
2022-08-27T10:04:33.935Z,2.15
2022-08-27T10:07:33.696Z,2.22
2022-08-27T10:10:28.475Z,2.25
2022-08-27T10:13:03.605Z,2.47
2022-08-27T10:16:00.056Z,2.60
2022-08-27T10:18:41.390Z,2.38
2022-08-27T10:21:26.365Z,2.40
2022-08-27T10:26:33.911Z,3.65
2022-08-27T10:29:25.556Z,2.00
2022-08-27T10:31:55.365Z,3.05
2022-08-27T10:35:00.335Z,4.05
2022-08-27T10:37:44.628Z,1.92
2022-08-27T10:40:33.713Z,2.58
2022-08-27T10:43:09.051Z,4.40
2022-08-27T10:48:26.152Z,2.63
2022-08-27T10:51:04.464Z,2.30
2022-08-27T10:53:59.670Z,3.28
2022-08-27T10:56:36.018Z,2.72
2022-08-27T10:59:11.029Z,3.35
2022-08-27T11:01:43.230Z,2.65
2022-08-27T11:04:30.258Z,2.55
2022-08-27T11:07:06.834Z,2.15
2022-08-27T11:09:57.400Z,3.45
2022-08-27T11:12:42.538Z,3.17
2022-08-27T11:15:19.062Z,2.58
2022-08-27T11:17:52.131Z,4.72
2022-08-27T11:20:22.331Z,4.60
2022-08-27T11:23:02.098Z,2.38
2022-08-27T11:25:36.022Z,3.90
2022-08-27T11:28:05.630Z,2.30
2022-08-27T11:30:49.030Z,3.10
2022-08-27T11:33:40.747Z,3.28
2022-08-27T11:36:43.068Z,1.95
2022-08-27T11:39:33.080Z,2.38
2022-08-27T11:42:07.676Z,2.47
2022-08-27T11:44:42.215Z,2.67
2022-08-27T11:47:27.254Z,2.72
2022-08-27T11:49:58.165Z,3.85
2022-08-27T11:53:16.077Z,3.15
2022-08-27T11:55:43.693Z,3.05
2022-08-27T11:58:19.338Z,4.40
2022-08-27T12:00:48.308Z,2.50
2022-08-27T12:03:35.551Z,3.47
2022-08-27T12:06:09.096Z,2.15
2022-08-27T12:08:38.037Z,2.63
2022-08-27T12:11:44.209Z,3.00
2022-08-27T12:14:29.922Z,2.60
2022-08-27T12:19:44.566Z,2.10
2022-08-27T12:22:27.138Z,2.95
2022-08-27T12:24:59.261Z,3.30
2022-08-27T12:27:32.239Z,9.00
2022-08-27T12:30:22.290Z,6.03
2022-08-27T12:32:52.634Z,2.88
2022-08-27T12:35:22.969Z,3.65
2022-08-27T12:37:57.162Z,5.35
2022-08-27T12:40:29.460Z,4.25
2022-08-27T12:43:07.955Z,2.50
2022-08-27T12:45:45.257Z,2.10
2022-08-27T12:48:12.312Z,2.72
2022-08-27T12:50:39.565Z,7.43
2022-08-27T12:53:18.979Z,4.45
2022-08-27T12:56:20.875Z,4.03
2022-08-27T12:58:50.646Z,9.70
2022-08-27T13:01:22.975Z,8.32
2022-08-27T13:03:54.105Z,17.35
2022-08-27T13:06:36.049Z,15.80
2022-08-27T13:09:06.670Z,16.85
2022-08-27T13:11:43.946Z,12.57
2022-08-27T13:14:17.738Z,19.20
2022-08-27T13:16:57.406Z,9.95
2022-08-27T13:19:36.455Z,7.57
2022-08-27T13:22:07.067Z,8.77
2022-08-27T13:24:44.123Z,11.27
2022-08-27T13:27:11.459Z,7.65
2022-08-27T13:29:40.427Z,11.20
2022-08-27T13:32:07.565Z,10.13
2022-08-27T13:34:38.977Z,10.30
2022-08-27T13:37:21.276Z,14.15
2022-08-27T13:39:53.143Z,6.95
2022-08-27T13:42:25.173Z,5.47
2022-08-27T13:45:01.693Z,6.13
2022-08-27T13:47:41.733Z,8.73
2022-08-27T13:50:17.763Z,4.05
2022-08-27T13:53:02.985Z,5.88
2022-08-27T13:55:30.561Z,3.67
2022-08-27T13:58:11.777Z,4.55
2022-08-27T14:00:38.834Z,9.32
2022-08-27T14:03:29.595Z,12.13
2022-08-27T14:05:56.928Z,7.05
2022-08-27T14:08:30.834Z,6.70
2022-08-27T14:11:04.999Z,4.70
2022-08-27T14:13:44.121Z,3.17
2022-08-27T14:16:30.270Z,5.60
2022-08-27T14:19:13.861Z,5.28
2022-08-27T14:21:43.391Z,2.22
2022-08-27T14:24:10.098Z,4.47
2022-08-27T14:26:37.084Z,4.65
2022-08-27T14:29:03.972Z,4.88
2022-08-27T14:31:38.876Z,4.07
2022-08-27T14:34:08.138Z,5.95
2022-08-27T14:36:38.295Z,5.85
2022-08-27T14:39:08.175Z,4.55
2022-08-27T14:41:35.040Z,4.43
2022-08-27T14:44:01.779Z,2.17
2022-08-27T14:46:32.444Z,3.10
2022-08-27T14:49:00.962Z,3.40
2022-08-27T14:51:30.021Z,4.10
2022-08-27T14:53:59.325Z,1.63
2022-08-27T14:56:27.038Z,5.68
2022-08-27T14:58:53.821Z,6.30
2022-08-27T15:01:23.653Z,3.70
2022-08-27T15:03:51.791Z,2.55
2022-08-27T15:06:22.271Z,7.63
2022-08-27T15:08:51.754Z,3.97
2022-08-27T15:11:24.721Z,6.25
2022-08-27T15:13:52.848Z,5.82
2022-08-27T15:16:38.549Z,3.58
2022-08-27T15:21:36.619Z,4.53
2022-08-27T15:24:24.470Z,3.25
2022-08-27T15:26:58.015Z,3.90
2022-08-27T15:29:27.551Z,1.92
2022-08-27T15:31:54.411Z,2.20
2022-08-27T15:34:21.139Z,2.80
2022-08-27T15:36:47.828Z,2.65
2022-08-27T15:39:15.421Z,4.40
2022-08-27T15:42:03.357Z,4.28
2022-08-27T15:44:29.980Z,3.75
2022-08-27T15:46:56.777Z,2.00
2022-08-27T15:49:23.600Z,2.90
2022-08-27T15:51:51.684Z,1.98
2022-08-27T15:54:19.056Z,3.45
2022-08-27T15:56:45.794Z,2.30
2022-08-27T15:59:12.564Z,5.18
2022-08-27T16:01:39.987Z,5.95
2022-08-27T16:04:07.468Z,3.28
2022-08-27T16:06:34.973Z,5.25
2022-08-27T16:09:02.537Z,4.72
2022-08-27T16:11:29.430Z,9.40
2022-08-27T16:13:57.454Z,8.10
2022-08-27T16:16:30.651Z,7.82
2022-08-27T16:19:01.068Z,7.18
2022-08-27T16:21:28.182Z,5.50
2022-08-27T16:23:55.054Z,11.77
2022-08-27T16:26:21.822Z,5.63
2022-08-27T16:28:48.520Z,6.78
2022-08-27T16:31:18.949Z,7.35
2022-08-27T16:33:46.855Z,7.90
2022-08-27T16:36:13.550Z,8.55
2022-08-27T16:38:40.795Z,5.95
2022-08-27T16:41:09.037Z,8.43
2022-08-27T16:43:35.844Z,8.93
2022-08-27T16:46:03.939Z,11.38
2022-08-27T16:48:49.418Z,5.22
2022-08-27T16:51:29.672Z,8.32
2022-08-27T16:53:59.687Z,4.77
2022-08-27T16:56:28.518Z,8.10
2022-08-27T16:58:55.864Z,4.40
2022-08-27T17:01:23.753Z,5.70
2022-08-27T17:04:09.203Z,4.82
2022-08-27T17:06:39.864Z,8.52
2022-08-27T17:09:07.275Z,6.07
2022-08-27T17:11:35.966Z,6.55
2022-08-27T17:14:03.458Z,5.78
2022-08-27T17:16:33.102Z,9.27
2022-08-27T17:19:04.508Z,5.00
2022-08-27T17:21:32.794Z,4.60
2022-08-27T17:24:03.686Z,8.40
2022-08-27T17:26:32.859Z,4.07
2022-08-27T17:29:00.247Z,6.07
2022-08-27T17:31:37.088Z,5.00
2022-08-27T17:34:05.714Z,2.95
2022-08-27T17:36:33.309Z,2.58
2022-08-27T17:39:00.588Z,5.25
2022-08-27T17:41:34.416Z,3.67
2022-08-27T17:44:05.600Z,4.45
2022-08-27T17:46:32.619Z,2.72
2022-08-27T17:48:59.699Z,2.28
2022-08-27T17:51:27.486Z,2.53
2022-08-27T17:54:00.485Z,6.38
2022-08-27T17:56:28.171Z,2.38
2022-08-27T17:58:55.439Z,1.90
2022-08-27T18:01:30.322Z,4.00
2022-08-27T18:03:59.048Z,4.97
2022-08-27T18:06:27.246Z,2.83
2022-08-27T18:08:54.033Z,2.17
2022-08-27T18:11:20.833Z,2.03
2022-08-27T18:13:52.543Z,3.53
2022-08-27T18:16:19.940Z,2.10
2022-08-27T18:18:46.928Z,3.85
2022-08-27T18:21:14.441Z,4.30
2022-08-27T18:23:52.243Z,2.60
2022-08-27T18:26:21.488Z,3.88
2022-08-27T18:28:48.985Z,2.85
2022-08-27T18:31:18.773Z,3.88
2022-08-27T18:33:45.982Z,2.83
2022-08-27T18:36:12.974Z,4.10
2022-08-27T18:38:39.885Z,2.25
2022-08-27T18:41:08.482Z,5.15
2022-08-27T18:43:36.331Z,2.83
2022-08-27T18:46:06.172Z,1.60
2022-08-27T18:48:33.285Z,2.78
2022-08-27T18:51:02.807Z,2.50
2022-08-27T18:53:32.922Z,3.53
2022-08-27T18:56:00.423Z,2.85
2022-08-27T18:58:27.959Z,3.97
2022-08-27T19:00:58.930Z,3.47
2022-08-27T19:03:34.519Z,4.38
2022-08-27T19:06:01.895Z,2.17
2022-08-27T19:08:39.155Z,3.08
2022-08-27T19:11:06.196Z,3.10
2022-08-27T19:13:32.935Z,1.73
2022-08-27T19:16:05.041Z,3.47
2022-08-27T19:18:34.604Z,2.60
2022-08-27T19:21:02.063Z,2.50
2022-08-27T19:23:28.885Z,2.92
2022-08-27T19:25:55.990Z,2.10
2022-08-27T19:28:46.347Z,2.35
2022-08-27T19:31:14.474Z,2.45
2022-08-27T19:33:41.919Z,3.70
2022-08-27T19:36:15.027Z,3.17
2022-08-27T19:38:43.648Z,2.95
2022-08-27T19:41:10.914Z,4.25
2022-08-27T19:43:44.742Z,2.20
2022-08-27T19:46:16.968Z,2.13
2022-08-27T19:48:43.822Z,3.00
2022-08-27T19:51:10.951Z,1.88
2022-08-27T19:53:38.195Z,2.30
2022-08-27T19:56:07.671Z,2.28
2022-08-27T19:58:34.603Z,2.30
2022-08-27T20:01:02.044Z,2.50
2022-08-27T20:03:28.866Z,2.10
2022-08-27T20:05:55.846Z,1.60
2022-08-27T20:08:26.165Z,3.35
2022-08-27T20:10:52.935Z,2.20
2022-08-27T20:13:19.997Z,2.30
2022-08-27T20:15:47.146Z,2.45
2022-08-27T20:18:17.472Z,3.58
2022-08-27T20:20:48.634Z,1.95
2022-08-27T20:23:15.994Z,2.25
2022-08-27T20:25:42.876Z,3.63
2022-08-27T20:28:37.371Z,2.00
2022-08-27T20:30:59.406Z,3.58
2022-08-27T20:33:26.945Z,2.10
2022-08-27T20:35:56.591Z,2.40
2022-08-27T20:38:23.621Z,2.40
2022-08-27T20:40:51.476Z,2.05
2022-08-27T20:43:18.845Z,2.17
2022-08-27T20:45:46.018Z,3.75
2022-08-27T20:48:13.245Z,2.97
2022-08-27T20:50:40.121Z,2.80
2022-08-27T20:53:07.096Z,2.58
2022-08-27T20:55:33.826Z,3.22
2022-08-27T20:58:19.380Z,2.97
2022-08-27T21:00:46.254Z,3.40
2022-08-27T21:03:14.478Z,2.20
2022-08-27T21:05:43.753Z,1.92
2022-08-27T21:08:10.769Z,2.40
2022-08-27T21:10:44.907Z,2.35
2022-08-27T21:13:12.526Z,2.72
2022-08-27T21:15:39.510Z,2.45
2022-08-27T21:18:06.681Z,2.05
2022-08-27T21:20:35.967Z,2.75
2022-08-27T21:23:03.016Z,2.03
2022-08-27T21:25:29.979Z,3.00
2022-08-27T21:27:57.759Z,2.63
2022-08-27T21:30:26.353Z,2.35
2022-08-27T21:32:55.841Z,3.92
2022-08-27T21:35:30.282Z,3.47
2022-08-27T21:37:59.194Z,3.20
2022-08-27T21:40:28.229Z,3.97
2022-08-27T21:42:57.168Z,2.70
2022-08-27T21:45:24.922Z,4.18
2022-08-27T21:47:51.865Z,3.65
2022-08-27T21:50:19.685Z,2.63
2022-08-27T21:52:46.454Z,3.10
2022-08-27T21:55:13.272Z,3.75
2022-08-27T21:57:40.141Z,2.13
2022-08-27T22:00:37.642Z,3.05
2022-08-27T22:03:10.139Z,2.00
2022-08-27T22:05:40.023Z,3.25
2022-08-27T22:08:08.626Z,3.17
2022-08-27T22:10:35.919Z,3.10
2022-08-27T22:13:03.587Z,3.55
2022-08-27T22:15:30.622Z,2.40
2022-08-27T22:17:57.792Z,2.78
2022-08-27T22:20:24.713Z,2.20
2022-08-27T22:22:52.326Z,2.35
2022-08-27T22:25:20.108Z,2.30
2022-08-27T22:27:46.865Z,3.33
2022-08-27T22:30:14.630Z,2.25
2022-08-27T22:32:41.538Z,2.17
2022-08-27T22:35:09.893Z,2.72
2022-08-27T22:37:37.041Z,1.73
2022-08-27T22:40:06.942Z,3.00
2022-08-27T22:42:38.581Z,3.10
2022-08-27T22:45:06.938Z,3.95
2022-08-27T22:47:36.499Z,2.80
2022-08-27T22:50:04.818Z,3.35
2022-08-27T22:52:31.727Z,3.97
2022-08-27T22:54:58.492Z,2.22
2022-08-27T22:57:25.404Z,4.55
2022-08-27T22:59:52.253Z,2.75
2022-08-27T23:02:19.063Z,2.40
2022-08-27T23:04:55.116Z,2.75
2022-08-27T23:07:23.481Z,3.67
2022-08-27T23:09:52.677Z,3.00
2022-08-27T23:12:19.848Z,2.63
2022-08-27T23:14:46.614Z,2.50
2022-08-27T23:17:14.491Z,2.78
2022-08-27T23:19:41.278Z,2.50
2022-08-27T23:22:09.028Z,2.97
2022-08-27T23:24:56.450Z,2.50
2022-08-27T23:27:29.448Z,3.05
2022-08-27T23:30:01.767Z,3.05
2022-08-27T23:32:29.555Z,3.33
2022-08-27T23:34:56.828Z,2.65
2022-08-27T23:37:23.937Z,3.00
2022-08-27T23:39:50.745Z,2.83
2022-08-27T23:42:18.426Z,2.85
2022-08-27T23:44:48.926Z,2.30
2022-08-27T23:47:16.825Z,3.53
2022-08-27T23:49:43.958Z,3.67
2022-08-27T23:52:12.129Z,2.60
2022-08-27T23:54:39.816Z,2.25
2022-08-27T23:57:06.558Z,2.55
2022-08-27T23:59:33.279Z,2.10
